Accokeek, Maryland
Current Conditions -  °F | °C
As of 4:58 AM on Saturday 25 Oct 2014 (Local Time) from KDAA Reporting Station
Clear Clear  
Wind Chill:   Ceiling: Unl
Heat Index:   Visibility: 10mi
Dew Point:   Wind: 2mph
Humidity: 96%   Direction: NA
Pressure: 29.95"   Gusts: NA
Location:  38.67°N, 77.03°W
Report Text: KDAA 250858Z AUTO VRB02KT 10SM CLR 03/03 A2995 RMK AO2 SLP145 T00340028 58006
Loading
Personal Weather Stations






























Interactive Weather Map
Tropical Storm Tracking
New forecast layout! Learn more

10-Day Weather Forecast

Advertisements
Track Severe Weather on mobile